Terminal Aerodrome Forecast
Issued by NWS

Home | Current Version | Previous Version | Graphics & Text | Print | Product List | Glossary On
Versions: 1 2 3 4 5 6 7 8 9 10 11 12 13 14
911
FTUS43 KMPX 181738
TAFRWF
TAF
KRWF 181738Z 1818/1918 31013G22KT P6SM FEW250
     FM190300 29005KT P6SM SKC
     FM190800 23004KT P6SM SKC
     FM191500 18014KT P6SM SKC=

USA.gov is the U.S. government's official web portal to all federal, state and local government web resources and services.